createdAt,value
2022-08-17T00:00:34.561Z,96.90
2022-08-17T00:03:26.154Z,97.10
2022-08-17T00:06:12.134Z,97.40
2022-08-17T00:08:40.779Z,97.60
2022-08-17T00:11:11.161Z,97.60
2022-08-17T00:13:46.533Z,97.70
2022-08-17T00:16:53.464Z,97.90
2022-08-17T00:19:22.902Z,97.80
2022-08-17T00:22:33.948Z,97.80
2022-08-17T00:24:42.051Z,97.60
2022-08-17T00:27:09.301Z,97.40
2022-08-17T00:29:38.728Z,97.50
2022-08-17T00:33:15.777Z,97.70
2022-08-17T00:35:00.058Z,97.90
2022-08-17T00:37:27.671Z,97.90
2022-08-17T00:39:57.942Z,98.30
2022-08-17T00:42:30.914Z,98.10
2022-08-17T00:44:59.490Z,98.30
2022-08-17T00:47:28.994Z,98.50
2022-08-17T00:49:56.740Z,98.60
2022-08-17T00:52:35.048Z,98.60
2022-08-17T00:55:05.142Z,98.30
2022-08-17T00:57:44.600Z,98.20
2022-08-17T01:00:26.849Z,98.30
2022-08-17T01:03:19.477Z,98.30
2022-08-17T01:05:51.268Z,98.20
2022-08-17T01:08:24.638Z,98.10
2022-08-17T01:11:00.185Z,98.40
2022-08-17T01:13:40.159Z,98.70
2022-08-17T01:16:17.205Z,98.60
2022-08-17T01:18:47.077Z,98.90
2022-08-17T01:21:38.277Z,98.70
2022-08-17T01:24:06.625Z,98.70
2022-08-17T01:26:36.059Z,98.60
2022-08-17T01:29:05.880Z,98.60
2022-08-17T01:31:38.267Z,98.60
2022-08-17T01:34:10.384Z,98.80
2022-08-17T01:36:42.165Z,98.60
2022-08-17T01:39:17.226Z,98.60
2022-08-17T01:41:47.525Z,99.00
2022-08-17T01:44:17.104Z,99.10
2022-08-17T01:46:46.966Z,99.20
2022-08-17T01:49:14.626Z,99.20
2022-08-17T01:51:44.590Z,99.40
2022-08-17T01:54:15.359Z,99.30
2022-08-17T01:56:48.722Z,99.40
2022-08-17T01:59:16.742Z,99.70
2022-08-17T02:01:44.868Z,99.70
2022-08-17T02:04:13.425Z,99.60
2022-08-17T02:06:44.986Z,99.90
2022-08-17T02:09:25.574Z,99.90
2022-08-17T02:11:59.128Z,99.90
2022-08-17T02:14:27.318Z,99.90
2022-08-17T02:16:57.642Z,99.90
2022-08-17T02:19:25.474Z,99.90
2022-08-17T02:21:54.112Z,99.90
2022-08-17T02:25:01.151Z,99.90
2022-08-17T02:27:13.928Z,99.90
2022-08-17T02:29:43.945Z,99.90
2022-08-17T02:32:27.317Z,99.90
2022-08-17T02:34:56.140Z,99.90
2022-08-17T02:37:26.478Z,99.70
2022-08-17T02:39:56.961Z,99.40
2022-08-17T02:42:35.144Z,99.60
2022-08-17T02:45:04.805Z,99.90
2022-08-17T02:47:35.208Z,99.70
2022-08-17T02:50:05.995Z,99.90
2022-08-17T02:52:43.079Z,99.90
2022-08-17T02:55:16.340Z,99.90
2022-08-17T02:57:44.175Z,99.90
2022-08-17T03:00:16.136Z,99.90
2022-08-17T03:02:49.429Z,99.90
2022-08-17T03:05:21.937Z,99.90
2022-08-17T03:07:49.114Z,99.90
2022-08-17T03:10:17.890Z,99.90
2022-08-17T03:12:48.864Z,99.90
2022-08-17T03:15:19.974Z,99.90
2022-08-17T03:17:50.238Z,99.90
2022-08-17T03:20:20.664Z,99.90
2022-08-17T03:22:54.677Z,99.90
2022-08-17T03:25:37.140Z,99.90
2022-08-17T03:28:07.883Z,99.90
2022-08-17T03:30:36.142Z,99.90
2022-08-17T03:33:06.165Z,99.90
2022-08-17T03:35:37.658Z,99.90
2022-08-17T03:38:06.297Z,99.90
2022-08-17T03:40:57.192Z,99.90
2022-08-17T03:43:32.355Z,99.90
2022-08-17T03:46:28.369Z,99.90
2022-08-17T03:49:38.689Z,99.90
2022-08-17T03:52:35.357Z,99.90
2022-08-17T03:55:21.315Z,99.90
2022-08-17T03:58:05.948Z,99.90
2022-08-17T04:00:39.718Z,99.90
2022-08-17T04:03:07.170Z,99.90
2022-08-17T04:05:36.797Z,99.90
2022-08-17T04:08:07.725Z,99.90
2022-08-17T04:10:38.372Z,99.90
2022-08-17T04:13:13.483Z,99.90
2022-08-17T04:15:43.481Z,99.90
2022-08-17T04:18:11.079Z,99.90
2022-08-17T04:20:38.658Z,99.90
2022-08-17T04:23:11.349Z,99.90
2022-08-17T04:25:42.794Z,99.90
2022-08-17T04:28:16.400Z,99.90
2022-08-17T04:30:46.485Z,99.90
2022-08-17T04:33:20.309Z,99.90
2022-08-17T04:35:51.216Z,99.90
2022-08-17T04:38:21.976Z,99.90
2022-08-17T04:41:07.952Z,99.90
2022-08-17T04:43:40.115Z,99.90
2022-08-17T04:46:14.616Z,99.90
2022-08-17T04:48:53.254Z,99.90
2022-08-17T04:51:56.263Z,99.90
2022-08-17T04:54:27.676Z,99.90
2022-08-17T04:56:54.956Z,99.90
2022-08-17T04:59:22.468Z,99.90
2022-08-17T05:01:54.943Z,99.90
2022-08-17T05:04:34.780Z,99.90
2022-08-17T05:07:04.579Z,99.90
2022-08-17T05:09:32.278Z,99.90
2022-08-17T05:12:03.021Z,99.90
2022-08-17T05:14:33.985Z,99.90
2022-08-17T05:17:07.278Z,99.90
2022-08-17T05:19:41.141Z,99.90
2022-08-17T05:22:08.506Z,99.90
2022-08-17T05:24:38.977Z,99.90
2022-08-17T05:27:18.871Z,99.90
2022-08-17T05:29:49.083Z,99.90
2022-08-17T05:32:37.868Z,99.90
2022-08-17T05:35:09.825Z,99.90
2022-08-17T05:37:39.345Z,99.90
2022-08-17T05:40:07.435Z,99.90
2022-08-17T05:42:34.891Z,99.90
2022-08-17T05:45:02.269Z,99.90
2022-08-17T05:47:31.083Z,99.90
2022-08-17T05:50:01.321Z,99.90
2022-08-17T05:53:04.253Z,99.90
2022-08-17T05:56:01.290Z,99.90
2022-08-17T05:58:57.251Z,99.90
2022-08-17T06:01:47.987Z,99.90
2022-08-17T06:04:39.753Z,99.90
2022-08-17T06:07:22.209Z,99.90
2022-08-17T06:10:03.283Z,99.90
2022-08-17T06:12:52.870Z,99.90
2022-08-17T06:15:29.247Z,99.90
2022-08-17T06:18:02.011Z,99.90
2022-08-17T06:20:41.297Z,99.90
2022-08-17T06:23:14.376Z,99.90
2022-08-17T06:25:47.881Z,99.90
2022-08-17T06:28:41.143Z,99.90
2022-08-17T06:31:16.934Z,99.90
2022-08-17T06:33:49.061Z,99.90
2022-08-17T06:36:44.240Z,99.90
2022-08-17T06:39:34.613Z,99.90
2022-08-17T16:45:54.367Z,99.90
2022-08-17T16:48:24.225Z,99.90
2022-08-17T16:50:58.603Z,99.90
2022-08-17T16:53:34.581Z,99.90
2022-08-17T16:56:07.229Z,99.90
2022-08-17T16:58:39.399Z,99.90
2022-08-17T17:01:08.737Z,99.90
2022-08-17T17:03:39.148Z,99.90
2022-08-17T17:06:17.106Z,99.90
2022-08-17T17:08:52.096Z,99.90
2022-08-17T17:11:25.539Z,99.90
2022-08-17T17:13:59.566Z,99.90
2022-08-17T17:16:51.788Z,99.90
2022-08-17T17:19:38.083Z,99.90
2022-08-17T17:23:00.832Z,99.90
2022-08-17T17:25:34.176Z,99.90
2022-08-17T17:28:06.984Z,99.90
2022-08-17T17:31:11.189Z,99.90
2022-08-17T17:33:49.790Z,99.90
2022-08-17T17:36:52.431Z,99.90
2022-08-17T17:39:44.221Z,99.90
2022-08-17T17:42:16.705Z,99.90
2022-08-17T17:44:58.901Z,99.90
2022-08-17T17:47:28.700Z,99.90
2022-08-17T17:49:56.120Z,99.90
2022-08-17T17:52:47.593Z,99.90
2022-08-17T17:55:32.956Z,99.90
2022-08-17T17:58:16.649Z,99.90
2022-08-17T18:01:14.326Z,99.90
2022-08-17T18:04:28.778Z,99.90
2022-08-17T18:07:02.559Z,99.90
2022-08-17T18:09:51.677Z,99.90
2022-08-17T18:12:44.744Z,99.90
2022-08-17T18:15:27.459Z,99.90
2022-08-17T18:18:25.119Z,99.90
2022-08-17T18:21:00.672Z,99.90
2022-08-17T18:23:30.764Z,99.90
2022-08-17T18:26:01.841Z,99.90
2022-08-17T18:28:43.971Z,99.90
2022-08-17T18:31:21.738Z,99.90
2022-08-17T18:33:52.391Z,99.90
2022-08-17T18:36:29.712Z,99.90
2022-08-17T18:39:27.395Z,99.90
2022-08-17T18:41:59.130Z,99.90
2022-08-17T18:44:38.041Z,99.90
2022-08-17T18:47:16.625Z,99.90
2022-08-17T18:49:47.743Z,99.90
2022-08-17T18:52:29.604Z,99.90
2022-08-17T18:55:13.704Z,99.90
2022-08-17T18:57:53.854Z,99.90
2022-08-17T19:00:30.098Z,99.90
2022-08-17T19:03:19.985Z,99.90
2022-08-17T19:05:53.224Z,99.90
2022-08-17T19:08:40.692Z,99.90
2022-08-17T19:11:16.378Z,99.90
2022-08-17T19:14:02.119Z,99.90
2022-08-17T19:16:41.196Z,99.90
2022-08-17T19:19:16.119Z,99.90
2022-08-17T19:21:57.715Z,99.90
2022-08-17T19:24:31.779Z,99.90
2022-08-17T19:27:18.066Z,99.90
2022-08-17T19:30:03.893Z,99.90
2022-08-17T19:32:35.740Z,99.90
2022-08-17T19:35:06.469Z,99.90
2022-08-17T19:38:03.401Z,99.90
2022-08-17T19:40:56.211Z,99.90
2022-08-17T19:44:02.542Z,99.90
2022-08-17T19:46:56.260Z,99.90
2022-08-17T19:49:52.379Z,99.90
2022-08-17T19:52:39.479Z,99.90
2022-08-17T19:55:25.811Z,99.90
2022-08-17T19:58:24.623Z,99.90
2022-08-17T20:00:54.724Z,99.90
2022-08-17T20:03:32.393Z,99.90
2022-08-17T20:06:13.166Z,99.90
2022-08-17T20:08:59.009Z,99.90
2022-08-17T20:11:45.429Z,99.90
2022-08-17T20:14:23.920Z,99.90
2022-08-17T20:16:55.159Z,99.90
2022-08-17T20:19:40.582Z,99.90
2022-08-17T20:22:19.921Z,99.90
2022-08-17T20:25:14.104Z,99.90
2022-08-17T20:28:19.701Z,99.90
2022-08-17T20:30:50.771Z,99.90
2022-08-17T20:33:37.079Z,99.90
2022-08-17T20:36:20.433Z,99.90
2022-08-17T20:38:55.058Z,99.90
2022-08-17T20:41:28.817Z,99.90
2022-08-17T20:43:59.589Z,99.90
2022-08-17T20:46:51.381Z,99.90
2022-08-17T20:49:34.247Z,99.90
2022-08-17T20:52:16.618Z,99.90
2022-08-17T20:54:48.511Z,99.90
2022-08-17T20:57:34.710Z,99.90
2022-08-17T21:00:15.364Z,99.90
2022-08-17T21:02:49.555Z,99.90
2022-08-17T21:05:34.585Z,99.90
2022-08-17T21:08:15.643Z,99.90
2022-08-17T21:10:45.458Z,99.90
2022-08-17T21:13:13.386Z,99.90
2022-08-17T21:15:54.765Z,99.90
2022-08-17T21:18:57.785Z,99.90
2022-08-17T21:21:54.411Z,99.90
2022-08-17T21:24:41.265Z,99.90
2022-08-17T21:27:43.129Z,99.90
2022-08-17T21:30:15.266Z,99.90
2022-08-17T21:32:45.029Z,99.90
2022-08-17T21:35:28.497Z,99.90
2022-08-17T21:38:02.465Z,99.90
2022-08-17T21:40:32.985Z,99.90
2022-08-17T21:43:16.852Z,99.90
2022-08-17T21:45:55.839Z,99.90
2022-08-17T21:48:28.722Z,99.90
2022-08-17T21:51:10.297Z,99.90
2022-08-17T21:53:50.885Z,99.90
2022-08-17T21:56:36.435Z,99.90
2022-08-17T21:59:25.747Z,99.90
2022-08-17T22:02:06.494Z,99.90
2022-08-17T22:04:40.464Z,99.90
2022-08-17T22:07:12.809Z,99.90
2022-08-17T22:09:48.830Z,99.90
2022-08-17T22:12:16.041Z,99.90
2022-08-17T22:14:57.123Z,99.90
2022-08-17T22:17:27.676Z,99.90
2022-08-17T22:20:01.446Z,99.90
2022-08-17T22:23:09.489Z,99.90
2022-08-17T22:25:42.374Z,99.90
2022-08-17T22:28:12.279Z,99.90
2022-08-17T22:30:58.101Z,99.90
2022-08-17T22:33:45.992Z,99.90
2022-08-17T22:36:36.185Z,99.90
2022-08-17T22:39:26.395Z,99.90
2022-08-17T22:41:59.376Z,99.90
2022-08-17T22:44:37.532Z,99.90
2022-08-17T22:47:24.057Z,99.90
2022-08-17T22:49:58.190Z,99.90
2022-08-17T22:52:35.922Z,99.90
2022-08-17T22:55:35.048Z,99.90
2022-08-17T22:58:27.973Z,99.90
2022-08-17T23:01:15.181Z,99.90
2022-08-17T23:03:59.392Z,99.90
2022-08-17T23:06:27.275Z,99.90
2022-08-17T23:08:56.620Z,99.90
2022-08-17T23:11:42.831Z,99.90
2022-08-17T23:14:15.784Z,99.90
2022-08-17T23:16:43.551Z,99.90
2022-08-17T23:19:15.655Z,99.90
2022-08-17T23:21:44.881Z,99.90
2022-08-17T23:24:22.335Z,99.90
2022-08-17T23:26:49.753Z,99.90
2022-08-17T23:29:17.078Z,99.90
2022-08-17T23:31:44.367Z,99.90
2022-08-17T23:34:18.970Z,99.90
2022-08-17T23:36:52.431Z,99.90
2022-08-17T23:39:27.535Z,99.90
2022-08-17T23:42:00.367Z,99.90
2022-08-17T23:44:28.855Z,99.90
2022-08-17T23:46:56.709Z,99.90
2022-08-17T23:49:25.102Z,99.90
2022-08-17T23:51:56.976Z,99.90
2022-08-17T23:54:33.607Z,99.90
2022-08-17T23:57:09.160Z,99.90
2022-08-17T23:59:40.068Z,99.90
